LFOELFRG

Guest
Details From LFOE - FAUVILLE
To LFRG - Deauville Saint Gatien
Flight Number -
Tags generated
Created
Modified
Stats Distance 46 nm / 86 km
Max Altitude 1,500 ft / 457 m
Waypoints 3
Social Downloads 24
Likes 0
Share

Download

Looking for another format? Having issues loading an existing format? Contact us
Advertisement - Login to hide

Notes

Basic altitude profile: - Ascent Rate: 250ft/min - Ascent Speed: 80kts - Cruise Altitude: 5000ft - Cruise Speed: 104kts - Descent Rate: 250ft/min - Descent Speed: 80kts Options: - Use NATs: yes - Use PACOTS: yes - Use low airways: yes - Use high airways: yes

Route

LFOE DVL LFRG

ID Type Via Altitude (ft/m) Position (lat/lon) Dist (leg/tot) Name
O LFOE APT - 0 / 0 49.02867 / 1.21987 - / 0 nm FAUVILLE
DVL VOR - 1,500 / 457 49.31075 / 0.31272 39 / 39 nm DEAUVILLE SAINT GATIEN VOR
O LFRG APT - 0 / 0 49.36530 / 0.15432 7 / 46 nm Deauville Saint Gatien

Altitude Profile

Advertisement - Login to hide

LFOE

Details ICAO LFOE (EVX)
Name FAUVILLE
Region France
Timezone Europe/Paris (UTC+2.0)
Stats Elevation 463 ft / 141 m (AMSL)
Location 49.028700° 1.219860°
Runways 1
Magnetic Variation 0.613° E

METAR

LFOE 221700Z AUTO 18006KT CAVOK 15/13 Q1012

Decode

TAF

TAF TAF LFOE 221632Z 2216/2315 CNL

Decode

Departure Runways

ID Width Length Bearing (true/mag) Surface Threshold Overrun Markings Lighting
04 148 ft / 45 m 9,836 ft / 2,998 m 39.78° / 39.17° ASPHALT 0 ft / 0 m 0 ft / 0 m PREC-APP CENTERLINE EDGE THRESHOLD REIL-OMNI
22 148 ft / 45 m 9,836 ft / 2,998 m 219.80° / 219.19° ASPHALT 0 ft / 0 m 0 ft / 0 m PREC-APP CENTERLINE EDGE THRESHOLD CALVERT REIL-OMNI

LFRG

Details ICAO LFRG (DOL)
Name Deauville Normandie
Region France
Timezone Europe/Paris (UTC+2.0)
Stats Elevation 479 ft / 146 m (AMSL)
Location 49.365300° 0.154331°
Runways 1
Magnetic Variation 0.253° E

METAR

LFRG 221700Z AUTO 19004KT CAVOK 14/12 Q1011 TEMPO 4000 SHRA BKN020TCU

Decode

TAF

Not found

Destination Runways

ID Width Length Bearing (true/mag) Surface Threshold Overrun Markings Lighting
12 145 ft / 44 m 8,340 ft / 2,542 m 117.22° / 116.97° ASPHALT 1,473 ft / 449 m 0 ft / 0 m APP EDGE THRESHOLD REIL-OMNI
30 145 ft / 44 m 8,340 ft / 2,542 m 297.25° / 296.99° ASPHALT 1,368 ft / 417 m 0 ft / 0 m PREC-APP EDGE THRESHOLD REIL-OMNI

Approach Navaids

Runway Type Ident Frequency Range Bearing (true/mag) Slope Elevation
30 DME DV 111.55 MHz 18 nm / 33 km - - 466 ft / 142 m (AMSL)
30 LOC-ILS DV 111.55 MHz 18 nm / 33 km 297.22° / 296.97 ° - 479 ft / 146 m (AMSL)
30 GS DV 111.55 MHz 10 nm / 19 km 297.47° / 297.21 ° 3.00° 479 ft / 146 m (AMSL)

Popular Alternatives